AirNav   MODERNIZE NOT PRIVATIZE ATC
 
 903 users online  

FA60 Vince's Condominium Association Airport
Lake Placid, Florida, USA

GOING TO LAKE PLACID?


FAA INFORMATION EFFECTIVE 20 JULY 2017

Location

FAA Identifier: FA60
Lat/Long: 27-14-20.1680N / 081-23-09.2620W
27-14.336133N / 081-23.154367W
27.2389356 / -81.3859061
(estimated)
Elevation: 115 ft. / 35 m (estimated)
Variation: 02W (1985)
From city: 3 miles S of LAKE PLACID, FL
Time zone: UTC -4 (UTC -5 during Standard Time)
Zip code: 33852

Airport Operations

Airport use: Private use. Permission required prior to landing
Control tower: no
ARTCC: MIAMI CENTER
FSS: SAINT PETERSBURG FLIGHT SERVICE STATION
Attendance: DAYLIGHT HOURS
Wind indicator: yes
Segmented circle: no

Airport Communications

WX AWOS-3 at SEF (13 nm N): 119.475 (863-655-6424)

Nearby radio navigation aids

VOR radial/distance  VOR name  Freq  Var
LBVr360/24.6LA BELLE VORTAC110.4001E
PGDr065/(37.7)PUNTA GORDA VOR110.2006W

Airport Services

Airframe service: MAJOR
Powerplant service: MINOR

Runway Information

Runway 9/27

Dimensions: 3000 x 75 ft. / 914 x 23 m
Surface: turf
RUNWAY 9  RUNWAY 27
Traffic pattern: leftleft

Airport Ownership and Management from official FAA records

Ownership: Privately-owned
Owner: VINCE'S ARPT CONDOMINIUM ASS'N
3950 PLACID VIEW DRIVE
LAKE PLACID, FL 33852
Phone 863-465-3555
Manager: FRED ARCH
8840 PLACID LAKES BLVD
LAKE PLACID, FL 33852
Phone (863) 414-0840

Airport Operational Statistics

Aircraft based on the field: 9
Single engine airplanes: 8
Ultralights: 1
    

Instrument Procedures

There are no published instrument procedures at FA60.

Some nearby airports with instrument procedures:

KSEF - Sebring Regional Airport (13 nm N)
KAVO - Avon Park Executive Airport (22 nm N)
X06 - Arcadia Municipal Airport (24 nm W)
KOBE - Okeechobee County Airport (29 nm E)
X14 - La Belle Municipal Airport (30 nm S)
 
Loc | Ops | Rwys | IFR | FBO | Links
Com | Nav | Svcs | Stats | Notes


 
Area around FA60 (Vince's Condominium Association Airport)
 
Road maps at: MapQuest Bing Google
 
Aerial photo
No photo
 
Sectional chart

 
Airport distance calculator
Flying to Vince's Condominium Association Airport? Find the distance to fly.

From to FA60

Sunrise and sunset
Times for 26-Jul-2017
 Local
(UTC-4)
 Zulu
(UTC)
Morning civil twilight06:2210:22
Sunrise06:4710:47
Sunset20:1700:17
Evening civil twilight20:4200:42

Current date and time
Zulu (UTC)  26-Jul-2017 12:16:54
Local (UTC-4)  26-Jul-2017 08:16:54
 
METAR
KSEF 
13nm N 
261155Z AUTO 00000KT 10SM CLR 27/25 A3011 RMK AO2 T02680247 10282 20260
TAF
KPGD 
38nm SW 
261125Z 2612/2712 VRB03KT P6SM FEW050 FM261800 09004KT P6SM VCTS SCT035CB FM262100 25007KT P6SM VCTS BKN035CB FM270500 VRB03KT P6SM BKN070
KRSW 
47nm SW 
261125Z 2612/2712 VRB03KT P6SM FEW060 FEW150 FM261800 10004KT P6SM VCTS SCT045CB FM262100 15007KT P6SM VCTS BKN045CB FM270000 19005KT P6SM BKN035 FM270300 VRB03KT P6SM SCT035 BKN060
KFMY 
47nm SW 
261125Z 2612/2712 VRB03KT P6SM FEW060 FEW200 FM261800 09005KT P6SM VCTS SCT040CB FM262200 23006KT P6SM VCTS BKN035CB FM270000 27004KT P6SM BKN035 FM270300 VRB03KT P6SM SCT045 BKN150
NOTAMs
Click for the latest NOTAMs
NOTAMs are issued by the DoD/FAA and will open in a separate window not controlled by AirNav.

 

 
 

Would you like to see your business listed on this page?

 If your business provides an interesting product or service to pilots, flight crews, aircraft, or users of the Vince's Condominium Association Airport, you should consider listing it here.  To start the listing process, click on the button below
 
Add a business
 

Other Pages about Vince's Condominium Association Airport

Update a link
 
Copyright © AirNav, LLC. All rights reserved. Privacy Policy  Contact